MSC Oscar — 3FBT7 — position and weather

sailwx.info

Track history (hours):
 
Tides and Currents Weather Stations Pressure Air Temp Water Temp Dewpoint Dewpoint Depression Visibility Wind Speed Wind Dir Waves Ship Positions

MSC Oscar

Last reported at 2018-Feb-19 14:28 UTC. Time now 2018-Feb-19 14:37 UTC.
Position N 51°57' E 004°02'.

Length 396 m; draft 10.5 m.

Type: Ship (hazmat cat A). MMSI: 355906000.

Date/timePositionNaut miles runAvg speedWind from/ knotsBaromVisibWave heightAir tempDewpointWater temp
2018-Feb-19 14:28N 51°57' E 004°02'0 0.0
2018-Feb-19 13:58N 51°57' E 004°02'0 0.0
2018-Feb-19 13:28N 51°57' E 004°02'0 0.0
2018-Feb-19 12:58N 51°57' E 004°02'0 0.0
2018-Feb-19 12:28N 51°57' E 004°02'0 0.0
2018-Feb-19 11:58N 51°57' E 004°02'0 0.0
2018-Feb-19 11:28N 51°57' E 004°02'0 0.0
2018-Feb-19 10:58N 51°57' E 004°02'0 0.0
2018-Feb-19 10:28N 51°57' E 004°02'0 0.0
2018-Feb-19 09:58N 51°57' E 004°02'0 0.0
2018-Feb-19 09:28N 51°57' E 004°02'0 0.0
2018-Feb-19 08:58N 51°57' E 004°02'0 0.0
2018-Feb-19 08:28N 51°57' E 004°02'0 0.0
2018-Feb-19 07:55N 51°57' E 004°02'0 0.0
2018-Feb-19 07:28N 51°57' E 004°02'0 0.0
2018-Feb-19 06:58N 51°57' E 004°02'0 0.0
2018-Feb-19 06:28N 51°57' E 004°02'0 0.0
2018-Feb-19 05:58N 51°57' E 004°02'0 0.0
2018-Feb-19 05:28N 51°57' E 004°02'0 0.0
2018-Feb-19 04:58N 51°57' E 004°02'0 0.0
2018-Feb-19 04:28N 51°57' E 004°02'0 0.0
2018-Feb-19 03:58N 51°57' E 004°02'0 0.0
2018-Feb-19 03:28N 51°57' E 004°02'0 0.0
2018-Feb-19 02:58N 51°57' E 004°02'0 0.0
2018-Feb-19 02:28N 51°57' E 004°02'0 0.0
2018-Feb-19 01:58N 51°57' E 004°02'0 0.0
2018-Feb-19 01:28N 51°57' E 004°02'0 0.0
2018-Feb-19 00:58N 51°57' E 004°02'0 0.0
2018-Feb-19 00:28N 51°57' E 004°02'0 0.0
2018-Feb-18 23:58N 51°57' E 004°02'0 0.0
2018-Feb-18 23:28N 51°57' E 004°02'0 0.0
2018-Feb-18 22:58N 51°57' E 004°02'0 0.0
2018-Feb-18 22:28N 51°57' E 004°02'0 0.0
2018-Feb-18 21:58N 51°57' E 004°02'0 0.0
2018-Feb-18 21:28N 51°57' E 004°02'0 0.0
2018-Feb-18 20:58N 51°57' E 004°02'0 0.0
2018-Feb-18 20:28N 51°57' E 004°02'0 0.0
2018-Feb-18 19:58N 51°57' E 004°02'0 0.0
2018-Feb-18 19:28N 51°57' E 004°02'0 0.0
2018-Feb-18 18:58N 51°57' E 004°02'0 0.0
2018-Feb-18 18:28N 51°57' E 004°02'0 0.0
2018-Feb-18 17:58N 51°57' E 004°02'0 0.0
2018-Feb-18 17:28N 51°57' E 004°02'0 0.0
2018-Feb-18 16:58N 51°57' E 004°02'0 0.0
2018-Feb-18 16:25N 51°57' E 004°02'0 0.0
2018-Feb-18 15:58N 51°57' E 004°02'0 0.0
2018-Feb-18 15:28N 51°57' E 004°02'0 0.0
2018-Feb-18 14:58N 51°57' E 004°02'0 0.0
2018-Feb-18 14:28N 51°57' E 004°02'0 0.0
2018-Feb-18 13:58N 51°57' E 004°02'0 0.0
2018-Feb-18 13:28N 51°57' E 004°02'0 0.0
2018-Feb-18 12:58N 51°57' E 004°02'0 0.0
2018-Feb-18 12:28N 51°57' E 004°02'0 0.0
2018-Feb-18 11:58N 51°57' E 004°02'0 0.0
2018-Feb-18 11:28N 51°57' E 004°02'0 0.0
2018-Feb-18 10:58N 51°57' E 004°02'0 0.0
2018-Feb-18 10:28N 51°57' E 004°02'0 0.0
2018-Feb-18 09:58N 51°57' E 004°02'0 0.0
2018-Feb-18 09:28N 51°57' E 004°02'0 0.0
2018-Feb-18 08:58N 51°57' E 004°02'0 0.0
2018-Feb-18 08:28N 51°57' E 004°02'0 0.0
2018-Feb-18 07:58N 51°57' E 004°02'0 0.0
2018-Feb-18 07:28N 51°57' E 004°02'0 0.0
2018-Feb-18 06:58N 51°57' E 004°02'0 0.0
2018-Feb-18 06:30N 51°57' E 004°02'0 0.8
2018-Feb-18 06:00N 51°58' E 004°03'1 2.2
2018-Feb-18 05:30N 51°58' E 004°05'2 3.0
2018-Feb-18 05:00N 51°59' E 004°04'3 5.4
2018-Feb-18 04:30N 52°00' E 003°60'4 8.4
2018-Feb-18 04:00N 52°01' E 003°53'5 9.5
2018-Feb-18 03:30N 51°60' E 003°45'611.1
2018-Feb-18 03:00N 52°05' E 003°46'713.3
2018-Feb-18 02:31N 52°12' E 003°46'713.1
2018-Feb-18 02:00N 52°19' E 003°48'612.5
2018-Feb-18 01:30N 52°25' E 003°50'612.9
2018-Feb-18 01:00N 52°31' E 003°51'713.2
2018-Feb-18 00:30N 52°38' E 003°53'713.3
2018-Feb-17 23:59N 52°44' E 003°55'713.2
2018-Feb-17 23:29N 52°51' E 003°57'1812.7
2018-Feb-17 22:04N 53°05' E 004°16'413.6
2018-Feb-17 21:48N 53°07' E 004°21'413.4
2018-Feb-17 21:30N 53°10' E 004°25'713.1
2018-Feb-17 21:00N 53°16' E 004°29'7411.6
2018-Feb-17 14:38N 53°50' E 006°20'4813.3
2018-Feb-17 10:59N 53°59' E 007°41'814.0
2018-Feb-17 10:23N 53°52' E 007°50'615.6
2018-Feb-17 10:00N 53°51' E 008°00'713.8
2018-Feb-17 09:30N 53°47' E 008°09'713.2
2018-Feb-17 09:00N 53°43' E 008°18'714.0
2018-Feb-17 08:30N 53°38' E 008°27'3 6.1
2018-Feb-17 07:58N 53°36' E 008°31'0 0.0
2018-Feb-17 07:28N 53°36' E 008°31'0 0.0
2018-Feb-17 06:58N 53°36' E 008°31'0 0.0
2018-Feb-17 06:28N 53°36' E 008°31'0 0.0
2018-Feb-17 05:58N 53°36' E 008°31'0 0.0
2018-Feb-17 05:28N 53°36' E 008°31'0 0.0
2018-Feb-17 04:58N 53°36' E 008°31'0 0.0
2018-Feb-17 04:28N 53°36' E 008°31'0 0.0
2018-Feb-17 03:58N 53°36' E 008°31'0 0.0
2018-Feb-17 03:29N 53°36' E 008°31'0 0.0
2018-Feb-17 02:58N 53°36' E 008°31'0 0.0
2018-Feb-17 02:28N 53°36' E 008°31'0 0.0
2018-Feb-17 01:58N 53°36' E 008°31'0 0.0
2018-Feb-17 01:28N 53°36' E 008°31'0 0.0
2018-Feb-17 00:58N 53°36' E 008°31'0 0.0
2018-Feb-17 00:28N 53°36' E 008°31'0 0.0
2018-Feb-16 23:58N 53°36' E 008°31'0 0.0
2018-Feb-16 23:28N 53°36' E 008°31'0 0.0
2018-Feb-16 22:58N 53°36' E 008°31'0 0.0
2018-Feb-16 22:28N 53°36' E 008°31'0 0.0
2018-Feb-16 21:58N 53°36' E 008°31'0 0.0
2018-Feb-16 21:28N 53°36' E 008°31'0 0.0
2018-Feb-16 20:58N 53°36' E 008°31'0 0.0
2018-Feb-16 20:25N 53°36' E 008°31'0 0.0
2018-Feb-16 19:58N 53°36' E 008°31'0 0.0
2018-Feb-16 19:28N 53°36' E 008°31'0 0.0
2018-Feb-16 18:58N 53°36' E 008°31'0 0.0
2018-Feb-16 18:25N 53°36' E 008°31'0 0.0
2018-Feb-16 17:58N 53°36' E 008°31'0 0.0
2018-Feb-16 17:28N 53°36' E 008°31'0 0.0
2018-Feb-16 16:58N 53°36' E 008°31'0 0.0
2018-Feb-16 16:25N 53°36' E 008°31'0 0.0
2018-Feb-16 15:55N 53°36' E 008°31'0 0.0
2018-Feb-16 15:28N 53°36' E 008°31'0 0.0
2018-Feb-16 14:58N 53°36' E 008°31'0 0.0
2018-Feb-16 14:28N 53°36' E 008°31'0 0.0
2018-Feb-16 13:58N 53°36' E 008°31'0 0.0
2018-Feb-16 13:28N 53°36' E 008°31'0 0.0
2018-Feb-16 12:55N 53°36' E 008°31'0 0.0
2018-Feb-16 12:28N 53°36' E 008°31'0 0.0
2018-Feb-16 11:58N 53°36' E 008°31'0 0.0
2018-Feb-16 11:28N 53°36' E 008°31'0 0.0
2018-Feb-16 10:58N 53°36' E 008°31'0 0.0
2018-Feb-16 10:28N 53°36' E 008°31'0 0.0
2018-Feb-16 09:58N 53°36' E 008°31'0 0.0
2018-Feb-16 09:30N 53°36' E 008°31'0 0.5
2018-Feb-16 09:00N 53°36' E 008°31'0 1.0
2018-Feb-16 08:30N 53°36' E 008°30'3 6.3
2018-Feb-16 08:00N 53°38' E 008°26'713.1
2018-Feb-16 07:30N 53°43' E 008°18'815.8
2018-Feb-16 07:00N 53°48' E 008°08'815.9
2018-Feb-16 06:30N 53°51' E 007°56'19 2.0
2018-Feb-15 21:07N 54°02' E 007°31'10 0.4
2018-Feb-14 20:15N 54°02' E 007°48'617.2
2018-Feb-14 19:53N 54°01' E 007°59'617.2
2018-Feb-14 19:30N 54°01' E 008°09'712.8
2018-Feb-14 18:59N 53°60' E 008°21'816.5
2018-Feb-14 18:31N 53°58' E 008°34'815.5
2018-Feb-14 18:00N 53°53' E 008°43'713.1
2018-Feb-14 17:31N 53°51' E 008°54'815.3
2018-Feb-14 17:00N 53°53' E 009°06'714.4
2018-Feb-14 16:31N 53°52' E 009°18'815.1
2018-Feb-14 16:00N 53°45' E 009°25'612.8
2018-Feb-14 15:30N 53°40' E 009°31'612.2
2018-Feb-14 15:01N 53°35' E 009°37'510.0
2018-Feb-14 14:30N 53°34' E 009°45'4 8.7
2018-Feb-14 14:01N 53°33' E 009°52'2 4.0
2018-Feb-14 13:29N 53°32' E 009°55'0 0.1
2018-Feb-14 12:59N 53°32' E 009°55'0 0.0
2018-Feb-14 12:29N 53°32' E 009°55'0 0.0
2018-Feb-14 11:59N 53°32' E 009°55'0 0.0
2018-Feb-14 11:29N 53°32' E 009°55'0 0.0
2018-Feb-14 10:59N 53°32' E 009°55'0 0.0
2018-Feb-14 10:29N 53°32' E 009°55'0 0.0
2018-Feb-14 09:59N 53°32' E 009°55'0 0.0
2018-Feb-14 09:29N 53°32' E 009°55'0 0.0
2018-Feb-14 08:59N 53°32' E 009°55'0 0.0
2018-Feb-14 08:29N 53°32' E 009°55'0 0.0
2018-Feb-14 07:59N 53°32' E 009°55'0 0.0
2018-Feb-14 07:29N 53°32' E 009°55'0 0.0
2018-Feb-14 07:00N 53°32' E 009°55'0 0.0
2018-Feb-14 06:29N 53°32' E 009°55'0 0.0
2018-Feb-14 05:59N 53°32' E 009°55'0 0.0
2018-Feb-14 05:29N 53°32' E 009°55'0 0.0
2018-Feb-14 04:59N 53°32' E 009°55'0 0.0
2018-Feb-14 04:29N 53°32' E 009°55'0 0.0
2018-Feb-14 03:59N 53°32' E 009°55'0 0.0
2018-Feb-14 03:29N 53°32' E 009°55'0 0.0
2018-Feb-14 02:59N 53°32' E 009°55'0 0.0
2018-Feb-14 02:29N 53°32' E 009°55'0 0.0
2018-Feb-14 01:59N 53°32' E 009°55'0 0.0
2018-Feb-14 01:29N 53°32' E 009°55'0 0.0
2018-Feb-14 00:59N 53°32' E 009°55'0 0.0
2018-Feb-14 00:29N 53°32' E 009°55'0 0.0
2018-Feb-13 23:59N 53°32' E 009°55'0 0.0
2018-Feb-13 23:29N 53°32' E 009°55'0 0.0
2018-Feb-13 22:59N 53°32' E 009°55'0 0.0
2018-Feb-13 22:29N 53°32' E 009°55'0 0.0
2018-Feb-13 21:59N 53°32' E 009°55'0 0.0
2018-Feb-13 21:29N 53°32' E 009°55'0 0.0
2018-Feb-13 20:59N 53°32' E 009°55'0 0.0
2018-Feb-13 20:29N 53°32' E 009°55'0 0.0
2018-Feb-13 19:59N 53°32' E 009°55'0 0.0
2018-Feb-13 19:29N 53°32' E 009°55'0 0.0
2018-Feb-13 18:59N 53°32' E 009°55'0 0.0
2018-Feb-13 18:29N 53°32' E 009°55'0 0.0
2018-Feb-13 17:59N 53°32' E 009°55'0 0.0
2018-Feb-13 17:29N 53°32' E 009°55'0 0.0
2018-Feb-13 16:59N 53°32' E 009°55'0 0.0
2018-Feb-13 16:29N 53°32' E 009°55'0 0.0
2018-Feb-13 15:59N 53°32' E 009°55'0 0.0
2018-Feb-13 15:29N 53°32' E 009°55'0 0.0
2018-Feb-13 14:59N 53°32' E 009°55'0 0.0
2018-Feb-13 14:29N 53°32' E 009°55'0 0.0
2018-Feb-13 13:59N 53°32' E 009°55'0 0.0
2018-Feb-13 13:29N 53°32' E 009°55'0 0.0
2018-Feb-13 12:59N 53°32' E 009°55'0 0.0
2018-Feb-13 12:29N 53°32' E 009°55'0 0.0
2018-Feb-13 11:59N 53°32' E 009°55'0 0.0
2018-Feb-13 11:29N 53°32' E 009°55'0 0.0
2018-Feb-13 10:59N 53°32' E 009°55'0 0.0
2018-Feb-13 10:29N 53°32' E 009°55'0 0.0
2018-Feb-13 09:59N 53°32' E 009°55'0 0.0
2018-Feb-13 09:29N 53°32' E 009°55'0 0.0
2018-Feb-13 08:59N 53°32' E 009°55'0 0.0
2018-Feb-13 08:29N 53°32' E 009°55'0 0.0
2018-Feb-13 07:59N 53°32' E 009°55'0 0.0
2018-Feb-13 07:29N 53°32' E 009°55'0 0.0
2018-Feb-13 06:59N 53°32' E 009°55'0 0.0
2018-Feb-13 06:29N 53°32' E 009°55'0 0.0
2018-Feb-13 05:59N 53°32' E 009°55'0 0.0
2018-Feb-13 05:29N 53°32' E 009°55'0 0.0
2018-Feb-13 04:59N 53°32' E 009°55'0 0.0
2018-Feb-13 04:29N 53°32' E 009°55'0 0.0
2018-Feb-13 03:59N 53°32' E 009°55'0 0.0
2018-Feb-13 03:29N 53°32' E 009°55'0 0.0
2018-Feb-13 02:59N 53°32' E 009°55'0 0.0
2018-Feb-13 02:30N 53°32' E 009°55'0 0.9
2018-Feb-13 02:00N 53°32' E 009°55'1 1.5
2018-Feb-13 01:30N 53°32' E 009°54'3 6.9
2018-Feb-13 01:00N 53°33' E 009°48'5 9.6
2018-Feb-13 00:30N 53°34' E 009°40'612.9
2018-Feb-13 00:00N 53°38' E 009°32'612.2
2018-Feb-12 23:31N 53°44' E 009°28'713.8
2018-Feb-12 23:00N 53°50' E 009°22'815.1
2018-Feb-12 22:31N 53°53' E 009°10'713.2
2018-Feb-12 22:01N 53°51' E 008°59'714.0
2018-Feb-12 21:31N 53°50' E 008°48'5 9.0
2018-Feb-12 21:00N 53°54' E 008°42'612.2
2018-Feb-12 20:30N 53°58' E 008°34'713.7
2018-Feb-12 20:00N 53°59' E 008°23'714.3
2018-Feb-12 19:30N 53°60' E 008°11'713.2
2018-Feb-12 19:00N 53°58' E 008°01'3 6.3
2018-Feb-12 18:30N 53°57' E 007°55'3 6.1
2018-Feb-12 18:00N 53°56' E 007°50'5 4.8
2018-Feb-12 16:58N 53°52' E 007°55'612.6
2018-Feb-12 16:30N 53°50' E 008°05'714.0
2018-Feb-12 16:00N 53°45' E 008°12'714.9
2018-Feb-12 15:30N 53°40' E 008°22'713.1
2018-Feb-12 15:00N 53°36' E 008°31'2 3.3
2018-Feb-12 14:31N 53°35' E 008°32'0 0.0
2018-Feb-12 13:59N 53°35' E 008°32'0 0.0
2018-Feb-12 13:28N 53°35' E 008°32'0 0.0
2018-Feb-12 12:58N 53°35' E 008°32'0 0.0
2018-Feb-12 12:28N 53°35' E 008°32'0 0.0
2018-Feb-12 11:58N 53°35' E 008°32'0 0.0
2018-Feb-12 11:28N 53°35' E 008°32'0 0.0
2018-Feb-12 10:58N 53°35' E 008°32'0 0.0
2018-Feb-12 10:22N 53°35' E 008°32'0 0.0
2018-Feb-12 09:58N 53°35' E 008°32'0 0.0
2018-Feb-12 09:28N 53°35' E 008°32'0 0.0
2018-Feb-12 08:58N 53°35' E 008°32'0 0.0
2018-Feb-12 08:26N 53°35' E 008°32'0 0.0
2018-Feb-12 07:58N 53°35' E 008°32'0 0.0
2018-Feb-12 07:28N 53°35' E 008°32'0 0.0
2018-Feb-12 06:58N 53°35' E 008°32'0 0.0
2018-Feb-12 06:28N 53°35' E 008°32'0 0.0
2018-Feb-12 05:58N 53°35' E 008°32'0 0.0
2018-Feb-12 05:28N 53°35' E 008°32'0 0.0
2018-Feb-12 04:58N 53°35' E 008°32'0 0.0
2018-Feb-12 04:28N 53°35' E 008°32'0 0.0
2018-Feb-12 03:55N 53°35' E 008°32'0 0.0
2018-Feb-12 03:25N 53°35' E 008°32'0 0.0
2018-Feb-12 02:58N 53°35' E 008°32'0 0.0
2018-Feb-12 02:28N 53°35' E 008°32'0 0.0
2018-Feb-12 01:55N 53°35' E 008°32'0 0.0
2018-Feb-12 01:28N 53°35' E 008°32'0 0.0
2018-Feb-12 00:58N 53°35' E 008°32'0 0.0
2018-Feb-12 00:28N 53°35' E 008°32'0 0.0
2018-Feb-11 23:58N 53°35' E 008°32'0 0.0
2018-Feb-11 23:28N 53°35' E 008°32'0 0.0
2018-Feb-11 22:58N 53°35' E 008°32'0 0.0
2018-Feb-11 22:28N 53°35' E 008°32'0 0.0
2018-Feb-11 21:58N 53°35' E 008°32'0 0.0
2018-Feb-11 21:28N 53°35' E 008°32'0 0.0
2018-Feb-11 20:58N 53°35' E 008°32'0 0.0
2018-Feb-11 20:28N 53°35' E 008°32'0 0.0
2018-Feb-11 19:58N 53°35' E 008°32'0 0.0
2018-Feb-11 19:28N 53°35' E 008°32'0 0.0
2018-Feb-11 18:58N 53°35' E 008°32'0 0.0
2018-Feb-11 18:28N 53°35' E 008°32'0 0.0
2018-Feb-11 17:58N 53°35' E 008°32'0 0.0
2018-Feb-11 17:28N 53°35' E 008°32'0 0.0
2018-Feb-11 16:58N 53°35' E 008°32'0 0.0
2018-Feb-11 16:28N 53°35' E 008°32'0 0.0
2018-Feb-11 15:58N 53°35' E 008°32'0 0.0
2018-Feb-11 15:28N 53°35' E 008°32'0 0.0
2018-Feb-11 14:58N 53°35' E 008°32'0 0.0
2018-Feb-11 14:28N 53°35' E 008°32'0 0.0
2018-Feb-11 13:58N 53°35' E 008°32'0 0.0
2018-Feb-11 13:28N 53°35' E 008°32'0 0.0
2018-Feb-11 12:58N 53°35' E 008°32'0 0.0
2018-Feb-11 12:28N 53°35' E 008°32'0 0.0
2018-Feb-11 11:58N 53°35' E 008°32'0 0.0
2018-Feb-11 11:28N 53°35' E 008°32'0 0.0
2018-Feb-11 10:58N 53°35' E 008°32'0 0.0
2018-Feb-11 10:28N 53°35' E 008°32'0 0.0
2018-Feb-11 09:58N 53°35' E 008°32'0 0.0
2018-Feb-11 09:28N 53°35' E 008°32'0 0.0
2018-Feb-11 08:58N 53°35' E 008°32'0 0.0
2018-Feb-11 08:28N 53°35' E 008°32'0 0.0
2018-Feb-11 07:58N 53°35' E 008°32'0 0.0
2018-Feb-11 07:28N 53°35' E 008°32'0 0.0
2018-Feb-11 06:58N 53°35' E 008°32'0 0.0
2018-Feb-11 06:28N 53°35' E 008°32'0 0.0
2018-Feb-11 05:58N 53°35' E 008°32'0 0.0
2018-Feb-11 05:28N 53°35' E 008°32'0 0.0
2018-Feb-11 04:58N 53°35' E 008°32'0 0.0
2018-Feb-11 04:28N 53°35' E 008°32'0 0.0
2018-Feb-11 03:58N 53°35' E 008°32'0 0.0
2018-Feb-11 03:28N 53°35' E 008°32'0 0.0
2018-Feb-11 02:58N 53°35' E 008°32'0 0.0
2018-Feb-11 02:28N 53°35' E 008°32'0 0.0
2018-Feb-11 01:58N 53°35' E 008°32'0 0.0
2018-Feb-11 01:28N 53°35' E 008°32'0 0.0
2018-Feb-11 00:58N 53°35' E 008°32'0 0.0
2018-Feb-11 00:28N 53°35' E 008°32'0 0.0
2018-Feb-10 23:58N 53°35' E 008°32'0 0.0
2018-Feb-10 23:28N 53°35' E 008°32'0 0.0
2018-Feb-10 22:58N 53°35' E 008°32'0 0.0
2018-Feb-10 22:28N 53°35' E 008°32'0 0.0
2018-Feb-10 21:58N 53°35' E 008°32'0 0.0
2018-Feb-10 21:28N 53°35' E 008°32'0 0.0
2018-Feb-10 20:58N 53°35' E 008°32'0 0.0
2018-Feb-10 20:28N 53°35' E 008°32'0 0.0
2018-Feb-10 19:58N 53°35' E 008°32'0 0.0
2018-Feb-10 19:28N 53°35' E 008°32'0 0.0
2018-Feb-10 18:58N 53°35' E 008°32'0 0.0
2018-Feb-10 18:28N 53°35' E 008°32'0 0.0
2018-Feb-10 18:00N 53°35' E 008°32'0 0.3
2018-Feb-10 17:30N 53°35' E 008°32'1 2.1
2018-Feb-10 17:00N 53°35' E 008°31'4 7.9
2018-Feb-10 16:31N 53°38' E 008°26'713.4
2018-Feb-10 16:00N 53°43' E 008°18'713.0
2018-Feb-10 15:30N 53°47' E 008°09'713.4
2018-Feb-10 15:00N 53°51' E 008°01'12010.6
2018-Feb-10 03:41N 53°26' E 004°42'316.4
2018-Feb-10 03:30N 53°24' E 004°41'816.5
2018-Feb-10 03:00N 53°16' E 004°35'816.7
2018-Feb-10 02:30N 53°09' E 004°29'816.6
2018-Feb-10 02:00N 53°01' E 004°23'816.7
2018-Feb-10 01:30N 52°54' E 004°17'816.7
2018-Feb-10 01:00N 52°47' E 004°09'816.6
2018-Feb-10 00:30N 52°41' E 004°00'816.6
2018-Feb-10 00:00N 52°35' E 003°50'816.6
2018-Feb-09 23:30N 52°29' E 003°41'4916.2
2018-Feb-09 20:31N 51°54' E 002°45'4015.8
2018-Feb-09 18:00N 51°24' E 002°04'815.7
2018-Feb-09 17:31N 51°18' E 001°56'1616.4
2018-Feb-09 16:30N 51°06' E 001°39'917.3
2018-Feb-09 16:01N 50°59' E 001°31'1616.2
2018-Feb-09 15:00N 50°43' E 001°22'  
Track history (hours):
 
Tides and Currents Weather Stations Pressure Air Temp Water Temp Dewpoint Dewpoint Depression Visibility Wind Speed Wind Dir Waves Ship Positions

MSC Oscar

Last reported at 2018-Feb-19 14:28 UTC. Time now 2018-Feb-19 14:37 UTC.
Position N 51°57' E 004°02'.

Length 396 m; draft 10.5 m.

Type: Ship (hazmat cat A). MMSI: 355906000.

Date/timePositionNaut miles runAvg speedWind from/ knotsBaromVisibWave heightAir tempDewpointWater temp
2018-Feb-19 14:28N 51°57' E 004°02'0 0.0
2018-Feb-19 13:58N 51°57' E 004°02'0 0.0
2018-Feb-19 13:28N 51°57' E 004°02'0 0.0
2018-Feb-19 12:58N 51°57' E 004°02'0 0.0
2018-Feb-19 12:28N 51°57' E 004°02'0 0.0
2018-Feb-19 11:58N 51°57' E 004°02'0 0.0
2018-Feb-19 11:28N 51°57' E 004°02'0 0.0
2018-Feb-19 10:58N 51°57' E 004°02'0 0.0
2018-Feb-19 10:28N 51°57' E 004°02'0 0.0
2018-Feb-19 09:58N 51°57' E 004°02'0 0.0
2018-Feb-19 09:28N 51°57' E 004°02'0 0.0
2018-Feb-19 08:58N 51°57' E 004°02'0 0.0
2018-Feb-19 08:28N 51°57' E 004°02'0 0.0
2018-Feb-19 07:55N 51°57' E 004°02'0 0.0
2018-Feb-19 07:28N 51°57' E 004°02'0 0.0
2018-Feb-19 06:58N 51°57' E 004°02'0 0.0
2018-Feb-19 06:28N 51°57' E 004°02'0 0.0
2018-Feb-19 05:58N 51°57' E 004°02'0 0.0
2018-Feb-19 05:28N 51°57' E 004°02'0 0.0
2018-Feb-19 04:58N 51°57' E 004°02'0 0.0
2018-Feb-19 04:28N 51°57' E 004°02'0 0.0
2018-Feb-19 03:58N 51°57' E 004°02'0 0.0
2018-Feb-19 03:28N 51°57' E 004°02'0 0.0
2018-Feb-19 02:58N 51°57' E 004°02'0 0.0
2018-Feb-19 02:28N 51°57' E 004°02'0 0.0
2018-Feb-19 01:58N 51°57' E 004°02'0 0.0
2018-Feb-19 01:28N 51°57' E 004°02'0 0.0
2018-Feb-19 00:58N 51°57' E 004°02'0 0.0
2018-Feb-19 00:28N 51°57' E 004°02'0 0.0
2018-Feb-18 23:58N 51°57' E 004°02'0 0.0
2018-Feb-18 23:28N 51°57' E 004°02'0 0.0
2018-Feb-18 22:58N 51°57' E 004°02'0 0.0
2018-Feb-18 22:28N 51°57' E 004°02'0 0.0
2018-Feb-18 21:58N 51°57' E 004°02'0 0.0
2018-Feb-18 21:28N 51°57' E 004°02'0 0.0
2018-Feb-18 20:58N 51°57' E 004°02'0 0.0
2018-Feb-18 20:28N 51°57' E 004°02'0 0.0
2018-Feb-18 19:58N 51°57' E 004°02'0 0.0
2018-Feb-18 19:28N 51°57' E 004°02'0 0.0
2018-Feb-18 18:58N 51°57' E 004°02'0 0.0
2018-Feb-18 18:28N 51°57' E 004°02'0 0.0
2018-Feb-18 17:58N 51°57' E 004°02'0 0.0
2018-Feb-18 17:28N 51°57' E 004°02'0 0.0
2018-Feb-18 16:58N 51°57' E 004°02'0 0.0
2018-Feb-18 16:25N 51°57' E 004°02'0 0.0
2018-Feb-18 15:58N 51°57' E 004°02'0 0.0
2018-Feb-18 15:28N 51°57' E 004°02'0 0.0
2018-Feb-18 14:58N 51°57' E 004°02'0 0.0
2018-Feb-18 14:28N 51°57' E 004°02'0 0.0
2018-Feb-18 13:58N 51°57' E 004°02'0 0.0
2018-Feb-18 13:28N 51°57' E 004°02'0 0.0
2018-Feb-18 12:58N 51°57' E 004°02'0 0.0
2018-Feb-18 12:28N 51°57' E 004°02'0 0.0
2018-Feb-18 11:58N 51°57' E 004°02'0 0.0
2018-Feb-18 11:28N 51°57' E 004°02'0 0.0
2018-Feb-18 10:58N 51°57' E 004°02'0 0.0
2018-Feb-18 10:28N 51°57' E 004°02'0 0.0
2018-Feb-18 09:58N 51°57' E 004°02'0 0.0
2018-Feb-18 09:28N 51°57' E 004°02'0 0.0
2018-Feb-18 08:58N 51°57' E 004°02'0 0.0
2018-Feb-18 08:28N 51°57' E 004°02'0 0.0
2018-Feb-18 07:58N 51°57' E 004°02'0 0.0
2018-Feb-18 07:28N 51°57' E 004°02'0 0.0
2018-Feb-18 06:58N 51°57' E 004°02'0 0.0
2018-Feb-18 06:30N 51°57' E 004°02'0 0.8
2018-Feb-18 06:00N 51°58' E 004°03'1 2.2
2018-Feb-18 05:30N 51°58' E 004°05'2 3.0
2018-Feb-18 05:00N 51°59' E 004°04'3 5.4
2018-Feb-18 04:30N 52°00' E 003°60'4 8.4
2018-Feb-18 04:00N 52°01' E 003°53'5 9.5
2018-Feb-18 03:30N 51°60' E 003°45'611.1
2018-Feb-18 03:00N 52°05' E 003°46'713.3
2018-Feb-18 02:31N 52°12' E 003°46'713.1
2018-Feb-18 02:00N 52°19' E 003°48'612.5
2018-Feb-18 01:30N 52°25' E 003°50'612.9
2018-Feb-18 01:00N 52°31' E 003°51'713.2
2018-Feb-18 00:30N 52°38' E 003°53'713.3
2018-Feb-17 23:59N 52°44' E 003°55'713.2
2018-Feb-17 23:29N 52°51' E 003°57'1812.7
2018-Feb-17 22:04N 53°05' E 004°16'413.6
2018-Feb-17 21:48N 53°07' E 004°21'413.4
2018-Feb-17 21:30N 53°10' E 004°25'713.1
2018-Feb-17 21:00N 53°16' E 004°29'7411.6
2018-Feb-17 14:38N 53°50' E 006°20'4813.3
2018-Feb-17 10:59N 53°59' E 007°41'814.0
2018-Feb-17 10:23N 53°52' E 007°50'615.6
2018-Feb-17 10:00N 53°51' E 008°00'713.8
2018-Feb-17 09:30N 53°47' E 008°09'713.2
2018-Feb-17 09:00N 53°43' E 008°18'714.0
2018-Feb-17 08:30N 53°38' E 008°27'3 6.1
2018-Feb-17 07:58N 53°36' E 008°31'0 0.0
2018-Feb-17 07:28N 53°36' E 008°31'0 0.0
2018-Feb-17 06:58N 53°36' E 008°31'0 0.0
2018-Feb-17 06:28N 53°36' E 008°31'0 0.0
2018-Feb-17 05:58N 53°36' E 008°31'0 0.0
2018-Feb-17 05:28N 53°36' E 008°31'0 0.0
2018-Feb-17 04:58N 53°36' E 008°31'0 0.0
2018-Feb-17 04:28N 53°36' E 008°31'0 0.0
2018-Feb-17 03:58N 53°36' E 008°31'0 0.0
2018-Feb-17 03:29N 53°36' E 008°31'0 0.0
2018-Feb-17 02:58N 53°36' E 008°31'0 0.0
2018-Feb-17 02:28N 53°36' E 008°31'0 0.0
2018-Feb-17 01:58N 53°36' E 008°31'0 0.0
2018-Feb-17 01:28N 53°36' E 008°31'0 0.0
2018-Feb-17 00:58N 53°36' E 008°31'0 0.0
2018-Feb-17 00:28N 53°36' E 008°31'0 0.0
2018-Feb-16 23:58N 53°36' E 008°31'0 0.0
2018-Feb-16 23:28N 53°36' E 008°31'0 0.0
2018-Feb-16 22:58N 53°36' E 008°31'0 0.0
2018-Feb-16 22:28N 53°36' E 008°31'0 0.0
2018-Feb-16 21:58N 53°36' E 008°31'0 0.0
2018-Feb-16 21:28N 53°36' E 008°31'0 0.0
2018-Feb-16 20:58N 53°36' E 008°31'0 0.0
2018-Feb-16 20:25N 53°36' E 008°31'0 0.0
2018-Feb-16 19:58N 53°36' E 008°31'0 0.0
2018-Feb-16 19:28N 53°36' E 008°31'0 0.0
2018-Feb-16 18:58N 53°36' E 008°31'0 0.0
2018-Feb-16 18:25N 53°36' E 008°31'0 0.0
2018-Feb-16 17:58N 53°36' E 008°31'0 0.0
2018-Feb-16 17:28N 53°36' E 008°31'0 0.0
2018-Feb-16 16:58N 53°36' E 008°31'0 0.0
2018-Feb-16 16:25N 53°36' E 008°31'0 0.0
2018-Feb-16 15:55N 53°36' E 008°31'0 0.0
2018-Feb-16 15:28N 53°36' E 008°31'0 0.0
2018-Feb-16 14:58N 53°36' E 008°31'0 0.0
2018-Feb-16 14:28N 53°36' E 008°31'0 0.0
2018-Feb-16 13:58N 53°36' E 008°31'0 0.0
2018-Feb-16 13:28N 53°36' E 008°31'0 0.0
2018-Feb-16 12:55N 53°36' E 008°31'0 0.0
2018-Feb-16 12:28N 53°36' E 008°31'0 0.0
2018-Feb-16 11:58N 53°36' E 008°31'0 0.0
2018-Feb-16 11:28N 53°36' E 008°31'0 0.0
2018-Feb-16 10:58N 53°36' E 008°31'0 0.0
2018-Feb-16 10:28N 53°36' E 008°31'0 0.0
2018-Feb-16 09:58N 53°36' E 008°31'0 0.0
2018-Feb-16 09:30N 53°36' E 008°31'0 0.5
2018-Feb-16 09:00N 53°36' E 008°31'0 1.0
2018-Feb-16 08:30N 53°36' E 008°30'3 6.3
2018-Feb-16 08:00N 53°38' E 008°26'713.1
2018-Feb-16 07:30N 53°43' E 008°18'815.8
2018-Feb-16 07:00N 53°48' E 008°08'815.9
2018-Feb-16 06:30N 53°51' E 007°56'19 2.0
2018-Feb-15 21:07N 54°02' E 007°31'10 0.4
2018-Feb-14 20:15N 54°02' E 007°48'617.2
2018-Feb-14 19:53N 54°01' E 007°59'617.2
2018-Feb-14 19:30N 54°01' E 008°09'712.8
2018-Feb-14 18:59N 53°60' E 008°21'816.5
2018-Feb-14 18:31N 53°58' E 008°34'815.5
2018-Feb-14 18:00N 53°53' E 008°43'713.1
2018-Feb-14 17:31N 53°51' E 008°54'815.3
2018-Feb-14 17:00N 53°53' E 009°06'714.4
2018-Feb-14 16:31N 53°52' E 009°18'815.1
2018-Feb-14 16:00N 53°45' E 009°25'612.8
2018-Feb-14 15:30N 53°40' E 009°31'612.2
2018-Feb-14 15:01N 53°35' E 009°37'510.0
2018-Feb-14 14:30N 53°34' E 009°45'4 8.7
2018-Feb-14 14:01N 53°33' E 009°52'2 4.0
2018-Feb-14 13:29N 53°32' E 009°55'0 0.1
2018-Feb-14 12:59N 53°32' E 009°55'0 0.0
2018-Feb-14 12:29N 53°32' E 009°55'0 0.0
2018-Feb-14 11:59N 53°32' E 009°55'0 0.0
2018-Feb-14 11:29N 53°32' E 009°55'0 0.0
2018-Feb-14 10:59N 53°32' E 009°55'0 0.0
2018-Feb-14 10:29N 53°32' E 009°55'0 0.0
2018-Feb-14 09:59N 53°32' E 009°55'0 0.0
2018-Feb-14 09:29N 53°32' E 009°55'0 0.0
2018-Feb-14 08:59N 53°32' E 009°55'0 0.0
2018-Feb-14 08:29N 53°32' E 009°55'0 0.0
2018-Feb-14 07:59N 53°32' E 009°55'0 0.0
2018-Feb-14 07:29N 53°32' E 009°55'0 0.0
2018-Feb-14 07:00N 53°32' E 009°55'0 0.0
2018-Feb-14 06:29N 53°32' E 009°55'0 0.0
2018-Feb-14 05:59N 53°32' E 009°55'0 0.0
2018-Feb-14 05:29N 53°32' E 009°55'0 0.0
2018-Feb-14 04:59N 53°32' E 009°55'0 0.0
2018-Feb-14 04:29N 53°32' E 009°55'0 0.0
2018-Feb-14 03:59N 53°32' E 009°55'0 0.0
2018-Feb-14 03:29N 53°32' E 009°55'0 0.0
2018-Feb-14 02:59N 53°32' E 009°55'0 0.0
2018-Feb-14 02:29N 53°32' E 009°55'0 0.0
2018-Feb-14 01:59N 53°32' E 009°55'0 0.0
2018-Feb-14 01:29N 53°32' E 009°55'0 0.0
2018-Feb-14 00:59N 53°32' E 009°55'0 0.0
2018-Feb-14 00:29N 53°32' E 009°55'0 0.0
2018-Feb-13 23:59N 53°32' E 009°55'0 0.0
2018-Feb-13 23:29N 53°32' E 009°55'0 0.0
2018-Feb-13 22:59N 53°32' E 009°55'0 0.0
2018-Feb-13 22:29N 53°32' E 009°55'0 0.0
2018-Feb-13 21:59N 53°32' E 009°55'0 0.0
2018-Feb-13 21:29N 53°32' E 009°55'0 0.0
2018-Feb-13 20:59N 53°32' E 009°55'0 0.0
2018-Feb-13 20:29N 53°32' E 009°55'0 0.0
2018-Feb-13 19:59N 53°32' E 009°55'0 0.0
2018-Feb-13 19:29N 53°32' E 009°55'0 0.0
2018-Feb-13 18:59N 53°32' E 009°55'0 0.0
2018-Feb-13 18:29N 53°32' E 009°55'0 0.0
2018-Feb-13 17:59N 53°32' E 009°55'0 0.0
2018-Feb-13 17:29N 53°32' E 009°55'0 0.0
2018-Feb-13 16:59N 53°32' E 009°55'0 0.0
2018-Feb-13 16:29N 53°32' E 009°55'0 0.0
2018-Feb-13 15:59N 53°32' E 009°55'0 0.0
2018-Feb-13 15:29N 53°32' E 009°55'0 0.0
2018-Feb-13 14:59N 53°32' E 009°55'0 0.0
2018-Feb-13 14:29N 53°32' E 009°55'0 0.0
2018-Feb-13 13:59N 53°32' E 009°55'0 0.0
2018-Feb-13 13:29N 53°32' E 009°55'0 0.0
2018-Feb-13 12:59N 53°32' E 009°55'0 0.0
2018-Feb-13 12:29N 53°32' E 009°55'0 0.0
2018-Feb-13 11:59N 53°32' E 009°55'0 0.0
2018-Feb-13 11:29N 53°32' E 009°55'0 0.0
2018-Feb-13 10:59N 53°32' E 009°55'0 0.0
2018-Feb-13 10:29N 53°32' E 009°55'0 0.0
2018-Feb-13 09:59N 53°32' E 009°55'0 0.0
2018-Feb-13 09:29N 53°32' E 009°55'0 0.0
2018-Feb-13 08:59N 53°32' E 009°55'0 0.0
2018-Feb-13 08:29N 53°32' E 009°55'0 0.0
2018-Feb-13 07:59N 53°32' E 009°55'0 0.0
2018-Feb-13 07:29N 53°32' E 009°55'0 0.0
2018-Feb-13 06:59N 53°32' E 009°55'0 0.0
2018-Feb-13 06:29N 53°32' E 009°55'0 0.0
2018-Feb-13 05:59N 53°32' E 009°55'0 0.0
2018-Feb-13 05:29N 53°32' E 009°55'0 0.0
2018-Feb-13 04:59N 53°32' E 009°55'0 0.0
2018-Feb-13 04:29N 53°32' E 009°55'0 0.0
2018-Feb-13 03:59N 53°32' E 009°55'0 0.0
2018-Feb-13 03:29N 53°32' E 009°55'0 0.0
2018-Feb-13 02:59N 53°32' E 009°55'0 0.0
2018-Feb-13 02:30N 53°32' E 009°55'0 0.9
2018-Feb-13 02:00N 53°32' E 009°55'1 1.5
2018-Feb-13 01:30N 53°32' E 009°54'3 6.9
2018-Feb-13 01:00N 53°33' E 009°48'5 9.6
2018-Feb-13 00:30N 53°34' E 009°40'612.9
2018-Feb-13 00:00N 53°38' E 009°32'612.2
2018-Feb-12 23:31N 53°44' E 009°28'713.8
2018-Feb-12 23:00N 53°50' E 009°22'815.1
2018-Feb-12 22:31N 53°53' E 009°10'713.2
2018-Feb-12 22:01N 53°51' E 008°59'714.0
2018-Feb-12 21:31N 53°50' E 008°48'5 9.0
2018-Feb-12 21:00N 53°54' E 008°42'612.2
2018-Feb-12 20:30N 53°58' E 008°34'713.7
2018-Feb-12 20:00N 53°59' E 008°23'714.3
2018-Feb-12 19:30N 53°60' E 008°11'713.2
2018-Feb-12 19:00N 53°58' E 008°01'3 6.3
2018-Feb-12 18:30N 53°57' E 007°55'3 6.1
2018-Feb-12 18:00N 53°56' E 007°50'5 4.8
2018-Feb-12 16:58N 53°52' E 007°55'612.6
2018-Feb-12 16:30N 53°50' E 008°05'714.0
2018-Feb-12 16:00N 53°45' E 008°12'714.9
2018-Feb-12 15:30N 53°40' E 008°22'713.1
2018-Feb-12 15:00N 53°36' E 008°31'2 3.3
2018-Feb-12 14:31N 53°35' E 008°32'0 0.0
2018-Feb-12 13:59N 53°35' E 008°32'0 0.0
2018-Feb-12 13:28N 53°35' E 008°32'0 0.0
2018-Feb-12 12:58N 53°35' E 008°32'0 0.0
2018-Feb-12 12:28N 53°35' E 008°32'0 0.0
2018-Feb-12 11:58N 53°35' E 008°32'0 0.0
2018-Feb-12 11:28N 53°35' E 008°32'0 0.0
2018-Feb-12 10:58N 53°35' E 008°32'0 0.0
2018-Feb-12 10:22N 53°35' E 008°32'0 0.0
2018-Feb-12 09:58N 53°35' E 008°32'0 0.0
2018-Feb-12 09:28N 53°35' E 008°32'0 0.0
2018-Feb-12 08:58N 53°35' E 008°32'0 0.0
2018-Feb-12 08:26N 53°35' E 008°32'0 0.0
2018-Feb-12 07:58N 53°35' E 008°32'0 0.0
2018-Feb-12 07:28N 53°35' E 008°32'0 0.0
2018-Feb-12 06:58N 53°35' E 008°32'0 0.0
2018-Feb-12 06:28N 53°35' E 008°32'0 0.0
2018-Feb-12 05:58N 53°35' E 008°32'0 0.0
2018-Feb-12 05:28N 53°35' E 008°32'0 0.0
2018-Feb-12 04:58N 53°35' E 008°32'0 0.0
2018-Feb-12 04:28N 53°35' E 008°32'0 0.0
2018-Feb-12 03:55N 53°35' E 008°32'0 0.0
2018-Feb-12 03:25N 53°35' E 008°32'0 0.0
2018-Feb-12 02:58N 53°35' E 008°32'0 0.0
2018-Feb-12 02:28N 53°35' E 008°32'0 0.0
2018-Feb-12 01:55N 53°35' E 008°32'0 0.0
2018-Feb-12 01:28N 53°35' E 008°32'0 0.0
2018-Feb-12 00:58N 53°35' E 008°32'0 0.0
2018-Feb-12 00:28N 53°35' E 008°32'0 0.0
2018-Feb-11 23:58N 53°35' E 008°32'0 0.0
2018-Feb-11 23:28N 53°35' E 008°32'0 0.0
2018-Feb-11 22:58N 53°35' E 008°32'0 0.0
2018-Feb-11 22:28N 53°35' E 008°32'0 0.0
2018-Feb-11 21:58N 53°35' E 008°32'0 0.0
2018-Feb-11 21:28N 53°35' E 008°32'0 0.0
2018-Feb-11 20:58N 53°35' E 008°32'0 0.0
2018-Feb-11 20:28N 53°35' E 008°32'0 0.0
2018-Feb-11 19:58N 53°35' E 008°32'0 0.0
2018-Feb-11 19:28N 53°35' E 008°32'0 0.0
2018-Feb-11 18:58N 53°35' E 008°32'0 0.0
2018-Feb-11 18:28N 53°35' E 008°32'0 0.0
2018-Feb-11 17:58N 53°35' E 008°32'0 0.0
2018-Feb-11 17:28N 53°35' E 008°32'0 0.0
2018-Feb-11 16:58N 53°35' E 008°32'0 0.0
2018-Feb-11 16:28N 53°35' E 008°32'0 0.0
2018-Feb-11 15:58N 53°35' E 008°32'0 0.0
2018-Feb-11 15:28N 53°35' E 008°32'0 0.0
2018-Feb-11 14:58N 53°35' E 008°32'0 0.0
2018-Feb-11 14:28N 53°35' E 008°32'0 0.0
2018-Feb-11 13:58N 53°35' E 008°32'0 0.0
2018-Feb-11 13:28N 53°35' E 008°32'0 0.0
2018-Feb-11 12:58N 53°35' E 008°32'0 0.0
2018-Feb-11 12:28N 53°35' E 008°32'0 0.0
2018-Feb-11 11:58N 53°35' E 008°32'0 0.0
2018-Feb-11 11:28N 53°35' E 008°32'0 0.0
2018-Feb-11 10:58N 53°35' E 008°32'0 0.0
2018-Feb-11 10:28N 53°35' E 008°32'0 0.0
2018-Feb-11 09:58N 53°35' E 008°32'0 0.0
2018-Feb-11 09:28N 53°35' E 008°32'0 0.0
2018-Feb-11 08:58N 53°35' E 008°32'0 0.0
2018-Feb-11 08:28N 53°35' E 008°32'0 0.0
2018-Feb-11 07:58N 53°35' E 008°32'0 0.0
2018-Feb-11 07:28N 53°35' E 008°32'0 0.0
2018-Feb-11 06:58N 53°35' E 008°32'0 0.0
2018-Feb-11 06:28N 53°35' E 008°32'0 0.0
2018-Feb-11 05:58N 53°35' E 008°32'0 0.0
2018-Feb-11 05:28N 53°35' E 008°32'0 0.0
2018-Feb-11 04:58N 53°35' E 008°32'0 0.0
2018-Feb-11 04:28N 53°35' E 008°32'0 0.0
2018-Feb-11 03:58N 53°35' E 008°32'0 0.0
2018-Feb-11 03:28N 53°35' E 008°32'0 0.0
2018-Feb-11 02:58N 53°35' E 008°32'0 0.0
2018-Feb-11 02:28N 53°35' E 008°32'0 0.0
2018-Feb-11 01:58N 53°35' E 008°32'0 0.0
2018-Feb-11 01:28N 53°35' E 008°32'0 0.0
2018-Feb-11 00:58N 53°35' E 008°32'0 0.0
2018-Feb-11 00:28N 53°35' E 008°32'0 0.0
2018-Feb-10 23:58N 53°35' E 008°32'0 0.0
2018-Feb-10 23:28N 53°35' E 008°32'0 0.0
2018-Feb-10 22:58N 53°35' E 008°32'0 0.0
2018-Feb-10 22:28N 53°35' E 008°32'0 0.0
2018-Feb-10 21:58N 53°35' E 008°32'0 0.0
2018-Feb-10 21:28N 53°35' E 008°32'0 0.0
2018-Feb-10 20:58N 53°35' E 008°32'0 0.0
2018-Feb-10 20:28N 53°35' E 008°32'0 0.0
2018-Feb-10 19:58N 53°35' E 008°32'0 0.0
2018-Feb-10 19:28N 53°35' E 008°32'0 0.0
2018-Feb-10 18:58N 53°35' E 008°32'0 0.0
2018-Feb-10 18:28N 53°35' E 008°32'0 0.0
2018-Feb-10 18:00N 53°35' E 008°32'0 0.3
2018-Feb-10 17:30N 53°35' E 008°32'1 2.1
2018-Feb-10 17:00N 53°35' E 008°31'4 7.9
2018-Feb-10 16:31N 53°38' E 008°26'713.4
2018-Feb-10 16:00N 53°43' E 008°18'713.0
2018-Feb-10 15:30N 53°47' E 008°09'713.4
2018-Feb-10 15:00N 53°51' E 008°01'12010.6
2018-Feb-10 03:41N 53°26' E 004°42'316.4
2018-Feb-10 03:30N 53°24' E 004°41'816.5
2018-Feb-10 03:00N 53°16' E 004°35'816.7
2018-Feb-10 02:30N 53°09' E 004°29'816.6
2018-Feb-10 02:00N 53°01' E 004°23'816.7
2018-Feb-10 01:30N 52°54' E 004°17'816.7
2018-Feb-10 01:00N 52°47' E 004°09'816.6
2018-Feb-10 00:30N 52°41' E 004°00'816.6
2018-Feb-10 00:00N 52°35' E 003°50'816.6
2018-Feb-09 23:30N 52°29' E 003°41'4916.2
2018-Feb-09 20:31N 51°54' E 002°45'4015.8
2018-Feb-09 18:00N 51°24' E 002°04'815.7
2018-Feb-09 17:31N 51°18' E 001°56'1616.4
2018-Feb-09 16:30N 51°06' E 001°39'917.3
2018-Feb-09 16:01N 50°59' E 001°31'1616.2
2018-Feb-09 15:00N 50°43' E 001°22'  

Dump ship's entire track history